createdAt,value
2017-12-22T00:01:35.469Z,77.49
2017-12-22T00:04:03.826Z,78.87
2017-12-22T00:06:32.183Z,77.86
2017-12-22T00:09:00.536Z,78.19
2017-12-22T00:11:28.880Z,77.48
2017-12-22T00:13:57.270Z,76.49
2017-12-22T00:16:25.605Z,76.72
2017-12-22T00:18:53.961Z,74.10
2017-12-22T00:21:22.307Z,74.48
2017-12-22T00:23:50.654Z,75.61
2017-12-22T00:26:19.035Z,76.47
2017-12-22T00:28:47.378Z,73.71
2017-12-22T00:31:15.730Z,72.29
2017-12-22T00:33:44.081Z,73.57
2017-12-22T00:36:12.417Z,74.53
2017-12-22T00:38:40.797Z,73.17
2017-12-22T00:41:09.134Z,74.53
2017-12-22T00:43:37.510Z,73.18
2017-12-22T00:46:05.846Z,77.67
2017-12-22T00:48:34.206Z,77.39
2017-12-22T00:51:02.549Z,76.90
2017-12-22T00:53:30.894Z,75.58
2017-12-22T00:55:59.275Z,74.95
2017-12-22T00:58:27.665Z,76.92
2017-12-22T01:00:56.065Z,75.50
2017-12-22T01:03:24.388Z,75.06
2017-12-22T01:05:52.739Z,75.23
2017-12-22T01:08:21.115Z,75.07
2017-12-22T01:10:49.462Z,76.87
2017-12-22T01:13:18.874Z,76.06
2017-12-22T01:15:52.742Z,73.60
2017-12-22T01:18:26.554Z,76.45
2017-12-22T01:20:54.908Z,74.14
2017-12-22T01:23:23.250Z,74.85
2017-12-22T01:25:51.654Z,74.19
2017-12-22T01:28:20.020Z,77.26
2017-12-22T01:30:48.362Z,74.83
2017-12-22T01:33:16.715Z,74.17
2017-12-22T01:35:45.059Z,76.29
2017-12-22T01:38:13.425Z,80.16
2017-12-22T01:40:41.770Z,76.27
2017-12-22T01:43:10.117Z,76.59
2017-12-22T01:45:38.477Z,74.85
2017-12-22T01:48:06.822Z,76.71
2017-12-22T01:50:35.206Z,75.18
2017-12-22T01:53:03.554Z,75.16
2017-12-22T01:55:31.894Z,77.85
2017-12-22T01:58:00.242Z,79.37
2017-12-22T02:00:28.581Z,77.19
2017-12-22T02:02:56.966Z,79.49
2017-12-22T02:05:25.319Z,75.23
2017-12-22T02:07:53.667Z,77.09
2017-12-22T02:10:22.024Z,75.56
2017-12-22T02:12:50.384Z,78.95
2017-12-22T02:15:18.752Z,78.69
2017-12-22T02:17:47.122Z,76.91
2017-12-22T02:20:15.469Z,74.58
2017-12-22T02:22:43.810Z,74.21
2017-12-22T02:25:12.172Z,72.48
2017-12-22T02:27:40.566Z,73.04
2017-12-22T02:30:08.910Z,74.60
2017-12-22T02:32:37.262Z,71.73
2017-12-22T02:35:05.613Z,73.00
2017-12-22T02:37:33.965Z,73.53
2017-12-22T02:40:02.315Z,72.11
2017-12-22T02:42:30.658Z,70.84
2017-12-22T02:44:59.039Z,71.36
2017-12-22T02:47:27.395Z,72.68
2017-12-22T02:49:55.751Z,73.02
2017-12-22T02:52:24.112Z,72.91
2017-12-22T02:54:52.450Z,72.37
2017-12-22T02:57:20.839Z,71.21
2017-12-22T02:59:49.195Z,70.54
2017-12-22T03:02:17.559Z,72.11
2017-12-22T03:04:45.906Z,73.12
2017-12-22T03:07:14.259Z,75.81
2017-12-22T03:09:42.643Z,73.83
2017-12-22T03:12:10.990Z,74.73
2017-12-22T03:14:39.347Z,74.34
2017-12-22T03:17:07.700Z,72.83
2017-12-22T03:19:36.046Z,72.22
2017-12-22T03:22:04.390Z,72.39
2017-12-22T03:24:32.734Z,71.47
2017-12-22T03:27:01.087Z,73.43
2017-12-22T03:29:29.479Z,71.61
2017-12-22T03:31:57.826Z,70.59
2017-12-22T03:34:26.169Z,71.58
2017-12-22T03:36:54.525Z,70.39
2017-12-22T03:39:22.874Z,69.99
2017-12-22T03:41:51.222Z,70.43
2017-12-22T03:44:19.565Z,69.75
2017-12-22T03:46:47.954Z,69.35
2017-12-22T03:49:16.305Z,70.38
2017-12-22T03:51:44.662Z,70.70
2017-12-22T03:54:13.023Z,69.41
2017-12-22T03:56:41.377Z,69.33
2017-12-22T03:59:09.771Z,68.98
2017-12-22T04:01:38.154Z,70.49
2017-12-22T04:04:06.507Z,70.01
2017-12-22T04:06:34.857Z,69.31
2017-12-22T04:09:03.210Z,69.15
2017-12-22T04:11:31.553Z,68.37
2017-12-22T04:13:59.937Z,68.09
2017-12-22T04:16:28.291Z,68.50
2017-12-22T04:18:56.642Z,68.84
2017-12-22T04:21:25.018Z,69.12
2017-12-22T04:23:53.366Z,68.76
2017-12-22T04:26:21.710Z,68.91
2017-12-22T04:28:50.083Z,68.49
2017-12-22T04:31:18.439Z,68.92
2017-12-22T04:33:46.811Z,69.29
2017-12-22T04:36:15.186Z,68.78
2017-12-22T04:38:43.534Z,68.62
2017-12-22T04:41:11.881Z,68.97
2017-12-22T04:43:40.248Z,68.94
2017-12-22T04:46:08.622Z,69.18
2017-12-22T04:48:36.962Z,69.07
2017-12-22T04:51:05.347Z,69.17
2017-12-22T04:53:33.724Z,68.21
2017-12-22T04:56:02.078Z,67.97
2017-12-22T04:58:30.420Z,68.01
2017-12-22T05:00:58.783Z,68.69
2017-12-22T05:03:27.161Z,68.69
2017-12-22T05:05:55.531Z,68.90
2017-12-22T05:08:23.892Z,68.77
2017-12-22T05:10:52.238Z,68.92
2017-12-22T05:13:20.598Z,68.81
2017-12-22T05:15:48.970Z,68.48
2017-12-22T05:18:17.311Z,69.74
2017-12-22T05:20:45.657Z,71.26
2017-12-22T05:23:14.011Z,69.89
2017-12-22T05:25:42.355Z,68.86
2017-12-22T05:28:10.733Z,69.09
2017-12-22T05:30:39.084Z,68.53
2017-12-22T05:33:07.421Z,69.41
2017-12-22T05:35:35.770Z,68.71
2017-12-22T05:38:04.146Z,68.70
2017-12-22T05:40:32.537Z,68.02
2017-12-22T05:43:00.883Z,68.32
2017-12-22T05:45:29.230Z,67.76
2017-12-22T05:47:57.575Z,68.45
2017-12-22T05:50:26.149Z,69.29
2017-12-22T05:52:54.530Z,69.36
2017-12-22T05:55:22.879Z,69.76
2017-12-22T05:57:51.225Z,69.87
2017-12-22T06:00:19.571Z,70.03
2017-12-22T06:02:47.918Z,69.77
2017-12-22T06:05:16.292Z,70.45
2017-12-22T06:07:44.634Z,69.39
2017-12-22T06:10:13.000Z,69.15
2017-12-22T06:12:41.350Z,68.36
2017-12-22T06:15:09.702Z,68.26
2017-12-22T06:17:38.314Z,69.58
2017-12-22T06:20:06.673Z,68.83
2017-12-22T06:22:35.018Z,68.41
2017-12-22T06:25:03.357Z,69.26
2017-12-22T06:27:31.710Z,69.98
2017-12-22T06:30:00.127Z,70.02
2017-12-22T06:32:28.473Z,70.75
2017-12-22T06:34:56.825Z,70.39
2017-12-22T06:37:25.188Z,68.87
2017-12-22T06:39:53.538Z,68.52
2017-12-22T06:42:21.908Z,68.56
2017-12-22T06:44:50.283Z,68.38
2017-12-22T06:47:18.635Z,68.79
2017-12-22T06:49:46.973Z,69.65
2017-12-22T06:52:15.333Z,70.17
2017-12-22T06:54:43.682Z,69.81
2017-12-22T06:57:12.033Z,69.66
2017-12-22T06:59:40.378Z,69.65
2017-12-22T07:02:08.727Z,69.72
2017-12-22T07:04:37.102Z,69.00
2017-12-22T07:07:05.452Z,70.13
2017-12-22T07:09:33.807Z,68.15
2017-12-22T07:12:02.162Z,67.60
2017-12-22T07:14:30.518Z,68.07
2017-12-22T07:16:58.906Z,68.07
2017-12-22T07:19:27.270Z,67.41
2017-12-22T07:21:55.618Z,68.63
2017-12-22T07:24:23.962Z,72.47
2017-12-22T07:26:52.311Z,72.37
2017-12-22T07:29:20.689Z,71.69
2017-12-22T07:31:49.041Z,70.48
2017-12-22T07:34:17.421Z,69.46
2017-12-22T07:36:45.763Z,68.74
2017-12-22T07:39:14.121Z,69.50
2017-12-22T07:41:42.495Z,68.66
2017-12-22T07:44:10.854Z,68.04
2017-12-22T07:46:39.210Z,68.50
2017-12-22T07:49:07.578Z,67.59
2017-12-22T07:51:35.934Z,68.51
2017-12-22T07:54:04.314Z,69.12
2017-12-22T07:56:32.691Z,67.80
2017-12-22T07:59:01.033Z,68.78
2017-12-22T08:01:29.374Z,70.03
2017-12-22T08:03:57.727Z,68.64
2017-12-22T08:06:26.106Z,68.39
2017-12-22T08:08:54.460Z,68.44
2017-12-22T08:11:22.806Z,67.91
2017-12-22T08:13:51.269Z,69.18
2017-12-22T08:16:19.664Z,69.85
2017-12-22T08:18:48.011Z,70.81
2017-12-22T08:21:16.386Z,70.75
2017-12-22T08:23:44.730Z,71.10
2017-12-22T08:26:13.087Z,69.34
2017-12-22T08:28:41.492Z,69.36
2017-12-22T08:31:09.838Z,68.95
2017-12-22T08:33:38.187Z,69.43
2017-12-22T08:36:06.543Z,68.74
2017-12-22T08:38:34.890Z,67.85
2017-12-22T08:41:03.241Z,67.58
2017-12-22T08:43:31.741Z,69.62
2017-12-22T08:46:00.139Z,68.63
2017-12-22T08:48:28.483Z,69.48
2017-12-22T08:50:56.839Z,68.31
2017-12-22T08:53:25.210Z,67.72
2017-12-22T08:55:53.555Z,66.70
2017-12-22T08:58:21.943Z,67.59
2017-12-22T09:00:50.305Z,69.35
2017-12-22T09:03:18.653Z,70.66
2017-12-22T09:05:47.004Z,71.45
2017-12-22T09:08:15.380Z,70.32
2017-12-22T09:10:43.736Z,69.66
2017-12-22T09:13:12.088Z,70.11
2017-12-22T09:15:40.442Z,69.29
2017-12-22T09:18:08.798Z,68.21
2017-12-22T09:20:37.239Z,67.42
2017-12-22T09:23:05.592Z,68.26
2017-12-22T09:25:33.974Z,69.58
2017-12-22T09:28:02.335Z,70.43
2017-12-22T09:30:30.695Z,70.04
2017-12-22T09:32:59.042Z,69.71
2017-12-22T09:35:27.412Z,68.66
2017-12-22T09:37:55.809Z,67.93
2017-12-22T09:40:24.160Z,68.54
2017-12-22T09:42:52.564Z,67.89
2017-12-22T09:45:20.909Z,68.43
2017-12-22T09:47:49.288Z,67.85
2017-12-22T09:50:17.646Z,68.27
2017-12-22T09:52:46.004Z,67.83
2017-12-22T09:55:14.442Z,67.99
2017-12-22T09:57:42.754Z,68.74
2017-12-22T10:00:11.101Z,69.40
2017-12-22T10:02:39.459Z,69.85
2017-12-22T10:05:07.809Z,68.20
2017-12-22T10:07:36.206Z,67.76
2017-12-22T10:10:04.560Z,65.80
2017-12-22T10:12:32.918Z,65.46
2017-12-22T10:15:01.287Z,66.02
2017-12-22T10:17:29.634Z,66.16
2017-12-22T10:19:58.050Z,67.14
2017-12-22T10:22:26.556Z,67.69
2017-12-22T10:24:55.079Z,66.82
2017-12-22T10:27:23.583Z,65.83
2017-12-22T10:29:52.221Z,66.41
2017-12-22T10:32:20.650Z,66.14
2017-12-22T10:34:49.182Z,67.13
2017-12-22T10:37:17.586Z,67.33
2017-12-22T10:39:45.971Z,67.22
2017-12-22T10:42:14.309Z,67.91
2017-12-22T10:44:42.663Z,67.61
2017-12-22T10:47:11.020Z,68.83
2017-12-22T10:49:39.374Z,67.76
2017-12-22T10:52:07.753Z,67.70
2017-12-22T10:54:36.111Z,66.17
2017-12-22T10:57:04.467Z,66.82
2017-12-22T10:59:32.827Z,65.74
2017-12-22T11:02:01.184Z,67.14
2017-12-22T11:04:29.612Z,65.32
2017-12-22T11:06:57.964Z,63.68
2017-12-22T11:09:26.311Z,65.94
2017-12-22T11:11:54.672Z,66.48
2017-12-22T11:14:23.009Z,67.90
2017-12-22T11:16:51.415Z,68.09
2017-12-22T11:19:19.769Z,67.08
2017-12-22T11:21:48.113Z,68.60
2017-12-22T11:24:16.490Z,68.45
2017-12-22T11:26:45.644Z,67.53
2017-12-22T11:29:14.038Z,68.55
2017-12-22T11:31:42.401Z,68.16
2017-12-22T11:34:10.771Z,68.54
2017-12-22T11:36:39.126Z,69.04
2017-12-22T11:39:07.479Z,68.40
2017-12-22T11:41:35.857Z,69.24
2017-12-22T11:44:04.193Z,70.98
2017-12-22T11:46:32.541Z,69.54
2017-12-22T11:49:00.880Z,68.80
2017-12-22T11:51:29.229Z,68.39
2017-12-22T11:53:57.607Z,67.49
2017-12-22T11:56:25.978Z,69.24
2017-12-22T11:58:54.463Z,68.04
2017-12-22T12:01:22.823Z,68.10
2017-12-22T12:03:51.198Z,67.39
2017-12-22T12:06:19.550Z,68.08
2017-12-22T12:08:47.930Z,67.13
2017-12-22T12:11:16.315Z,69.45
2017-12-22T12:13:44.676Z,70.52
2017-12-22T12:16:13.095Z,68.37
2017-12-22T12:18:41.436Z,66.76
2017-12-22T12:21:09.785Z,64.40
2017-12-22T12:23:38.164Z,64.33
2017-12-22T12:26:06.548Z,65.71
2017-12-22T12:28:35.036Z,66.47
2017-12-22T12:31:03.388Z,66.88
2017-12-22T12:33:31.760Z,67.13
2017-12-22T12:36:00.101Z,66.57
2017-12-22T12:38:28.489Z,65.78
2017-12-22T12:40:56.861Z,67.26
2017-12-22T12:43:25.212Z,67.51
2017-12-22T12:45:53.557Z,65.84
2017-12-22T12:48:22.003Z,66.74
2017-12-22T12:50:50.429Z,66.13
2017-12-22T12:53:18.853Z,65.88
2017-12-22T12:55:47.209Z,64.44
2017-12-22T12:58:15.577Z,66.30
2017-12-22T13:00:43.959Z,65.89
2017-12-22T13:03:12.368Z,67.21
2017-12-22T13:05:40.711Z,66.18
2017-12-22T13:08:09.114Z,68.25
2017-12-22T13:10:37.467Z,66.99
2017-12-22T13:13:05.810Z,66.11
2017-12-22T13:15:34.160Z,65.19
2017-12-22T13:18:02.514Z,65.80
2017-12-22T13:20:30.902Z,64.46
2017-12-22T13:23:00.115Z,64.95
2017-12-22T13:25:28.474Z,64.18
2017-12-22T13:27:56.822Z,65.77
2017-12-22T13:30:25.169Z,66.78
2017-12-22T13:32:53.562Z,65.86
2017-12-22T13:35:21.922Z,66.80
2017-12-22T13:37:50.383Z,66.42
2017-12-22T13:40:18.732Z,67.24
2017-12-22T13:42:47.083Z,68.10
2017-12-22T13:45:15.427Z,67.58
2017-12-22T13:47:43.834Z,66.78
2017-12-22T13:50:12.260Z,67.15
2017-12-22T13:52:40.602Z,65.74
2017-12-22T13:55:08.999Z,64.74
2017-12-22T13:57:37.349Z,69.13
2017-12-22T14:00:05.710Z,67.65
2017-12-22T14:02:34.932Z,66.33
2017-12-22T14:05:03.282Z,67.07
2017-12-22T14:07:31.666Z,68.09
2017-12-22T14:10:00.049Z,67.58
2017-12-22T14:12:28.378Z,66.94
2017-12-22T14:14:56.725Z,66.67
2017-12-22T14:17:25.074Z,66.09
2017-12-22T14:19:53.466Z,66.80
2017-12-22T14:22:21.818Z,66.92
2017-12-22T14:24:50.169Z,67.88
2017-12-22T14:27:18.532Z,69.93
2017-12-22T14:29:46.862Z,68.62
2017-12-22T14:32:15.238Z,68.07
2017-12-22T14:34:43.593Z,68.11
2017-12-22T14:37:11.943Z,68.85
2017-12-22T14:39:40.381Z,68.25
2017-12-22T14:42:08.720Z,67.42
2017-12-22T14:44:37.115Z,67.22
2017-12-22T14:47:05.468Z,68.60
2017-12-22T14:49:33.815Z,67.70
2017-12-22T14:52:02.173Z,67.31
2017-12-22T14:54:30.517Z,67.13
2017-12-22T14:56:58.910Z,66.34
2017-12-22T14:59:27.262Z,68.00
2017-12-22T15:01:55.625Z,67.19
2017-12-22T15:04:23.995Z,68.22
2017-12-22T15:06:52.358Z,68.00
2017-12-22T15:09:20.708Z,67.30
2017-12-22T15:11:49.128Z,68.05
2017-12-22T15:14:17.484Z,69.77
2017-12-22T15:16:45.835Z,69.12
2017-12-22T15:19:14.190Z,68.42
2017-12-22T15:21:42.566Z,69.60
2017-12-22T15:24:10.909Z,69.35
2017-12-22T15:26:39.254Z,68.93
2017-12-22T15:29:07.621Z,68.73
2017-12-22T15:31:36.104Z,68.20
2017-12-22T15:34:04.518Z,68.58
2017-12-22T15:36:32.874Z,69.17
2017-12-22T15:39:01.236Z,68.69
2017-12-22T15:41:29.605Z,69.08
2017-12-22T15:43:57.957Z,70.71
2017-12-22T15:46:26.310Z,71.37
2017-12-22T15:48:54.714Z,70.18
2017-12-22T15:51:23.057Z,70.68
2017-12-22T15:53:51.413Z,69.74
2017-12-22T15:56:19.772Z,70.62
2017-12-22T15:58:48.117Z,71.19
2017-12-22T16:01:16.467Z,72.00
2017-12-22T16:03:44.815Z,74.39
2017-12-22T16:06:13.193Z,72.84
2017-12-22T16:08:41.555Z,73.94
2017-12-22T16:11:09.907Z,72.08
2017-12-22T16:13:38.294Z,70.98
2017-12-22T16:16:06.634Z,70.65
2017-12-22T16:18:35.002Z,72.19
2017-12-22T16:21:03.354Z,72.20
2017-12-22T16:23:31.717Z,72.59
2017-12-22T16:26:00.066Z,72.75
2017-12-22T16:28:28.466Z,72.20
2017-12-22T16:30:56.810Z,72.54
2017-12-22T16:33:25.159Z,72.96
2017-12-22T16:35:53.520Z,74.18
2017-12-22T16:38:21.870Z,75.52
2017-12-22T16:40:50.239Z,74.69
2017-12-22T16:43:18.594Z,75.26
2017-12-22T16:45:46.935Z,73.56
2017-12-22T16:48:15.286Z,72.44
2017-12-22T16:50:43.634Z,72.62
2017-12-22T16:53:12.023Z,72.73
2017-12-22T16:55:40.387Z,72.85
2017-12-22T16:58:08.759Z,73.48
2017-12-22T17:00:37.111Z,73.56
2017-12-22T17:03:05.458Z,74.62
2017-12-22T17:05:33.817Z,75.32
2017-12-22T17:08:02.162Z,77.02
2017-12-22T17:10:30.519Z,73.91
2017-12-22T17:12:58.900Z,71.83
2017-12-22T17:15:27.248Z,71.38
2017-12-22T17:17:55.594Z,71.14
2017-12-22T17:20:24.001Z,72.11
2017-12-22T17:22:52.357Z,70.33
2017-12-22T17:25:20.715Z,71.25
2017-12-22T17:27:49.087Z,71.91
2017-12-22T17:30:17.434Z,70.80
2017-12-22T17:32:45.782Z,72.32
2017-12-22T17:35:14.128Z,70.37
2017-12-22T17:37:42.476Z,72.57
2017-12-22T17:40:10.846Z,72.07
2017-12-22T17:42:39.223Z,71.29
2017-12-22T17:45:07.575Z,70.85
2017-12-22T17:47:35.909Z,70.89
2017-12-22T17:50:04.258Z,71.85
2017-12-22T17:52:32.643Z,72.58
2017-12-22T17:55:00.992Z,72.35
2017-12-22T17:57:29.340Z,72.68
2017-12-22T17:59:57.685Z,71.86
2017-12-22T18:02:26.034Z,73.04
2017-12-22T18:04:54.378Z,72.39
2017-12-22T18:07:22.455Z,72.26
2017-12-22T18:09:50.515Z,71.52
2017-12-22T18:12:18.576Z,70.86
2017-12-22T18:14:46.678Z,69.36
2017-12-22T18:17:14.797Z,69.68
2017-12-22T18:19:42.875Z,70.02
2017-12-22T18:22:10.938Z,70.06
2017-12-22T18:24:39.316Z,70.36
2017-12-22T18:27:07.658Z,70.32
2017-12-22T18:29:36.012Z,69.70
2017-12-22T18:32:04.394Z,70.31
2017-12-22T18:34:32.943Z,68.99
2017-12-22T18:37:01.286Z,69.48
2017-12-22T18:39:29.639Z,69.13
2017-12-22T18:41:58.132Z,69.49
2017-12-22T18:44:26.470Z,69.86
2017-12-22T18:46:54.874Z,70.41
2017-12-22T18:49:23.225Z,69.46
2017-12-22T18:51:51.586Z,70.72
2017-12-22T18:54:19.965Z,74.62
2017-12-22T18:56:48.310Z,72.93
2017-12-22T18:59:16.691Z,72.88
2017-12-22T19:01:45.098Z,72.91
2017-12-22T19:04:13.446Z,74.03
2017-12-22T19:06:41.815Z,73.35
2017-12-22T19:09:10.165Z,72.49
2017-12-22T19:11:38.574Z,73.29
2017-12-22T19:14:06.923Z,75.97
2017-12-22T19:16:35.282Z,74.08
2017-12-22T19:19:03.633Z,71.74
2017-12-22T19:21:31.983Z,72.15
2017-12-22T19:24:00.363Z,71.50
2017-12-22T19:26:28.719Z,74.43
2017-12-22T19:28:57.069Z,71.12
2017-12-22T19:31:25.423Z,72.33
2017-12-22T19:33:53.772Z,74.43
2017-12-22T19:36:22.125Z,71.90
2017-12-22T19:38:50.479Z,70.86
2017-12-22T19:41:18.827Z,70.71
2017-12-22T19:43:47.182Z,72.33
2017-12-22T19:46:15.575Z,73.97
2017-12-22T19:48:43.917Z,75.90
2017-12-22T19:51:12.266Z,74.78
2017-12-22T19:53:40.804Z,73.62
2017-12-22T19:56:09.208Z,72.61
2017-12-22T19:58:37.598Z,70.28
2017-12-22T20:01:05.955Z,70.94
2017-12-22T20:03:34.306Z,72.81
2017-12-22T20:06:02.666Z,73.77
2017-12-22T20:08:31.014Z,72.24
2017-12-22T20:10:59.410Z,73.15
2017-12-22T20:13:27.758Z,71.59
2017-12-22T20:15:56.108Z,71.65
2017-12-22T20:18:25.885Z,74.32
2017-12-22T20:20:54.286Z,73.94
2017-12-22T20:23:22.663Z,70.83
2017-12-22T20:25:51.006Z,72.04
2017-12-22T20:28:19.411Z,71.35
2017-12-22T20:30:47.874Z,69.60
2017-12-22T20:33:16.353Z,69.29
2017-12-22T20:35:44.971Z,74.47
2017-12-22T20:38:13.431Z,71.11
2017-12-22T20:40:41.792Z,70.49
2017-12-22T20:43:11.852Z,74.36
2017-12-22T20:45:40.311Z,73.95
2017-12-22T20:48:08.691Z,72.42
2017-12-22T20:50:37.047Z,74.80
2017-12-22T20:53:05.398Z,76.52
2017-12-22T20:55:33.790Z,73.09
2017-12-22T20:58:02.214Z,73.02
2017-12-22T21:00:30.574Z,73.62
2017-12-22T21:02:58.948Z,73.18
2017-12-22T21:05:27.313Z,74.35
2017-12-22T21:07:55.714Z,75.49
2017-12-22T21:10:24.121Z,70.81
2017-12-22T21:12:52.548Z,71.18
2017-12-22T21:15:21.063Z,69.78
2017-12-22T21:17:49.562Z,69.86
2017-12-22T21:20:18.066Z,68.95
2017-12-22T21:22:46.741Z,71.75
2017-12-22T21:25:17.326Z,69.79
2017-12-22T21:27:45.961Z,68.76
2017-12-22T21:30:15.384Z,70.90
2017-12-22T21:32:44.170Z,72.82
2017-12-22T21:35:12.565Z,74.20
2017-12-22T21:37:41.097Z,73.60
2017-12-22T21:40:09.533Z,74.34
2017-12-22T21:42:37.982Z,72.52
2017-12-22T21:45:06.484Z,73.20
2017-12-22T21:47:34.906Z,71.80
2017-12-22T21:50:03.296Z,72.36
2017-12-22T21:52:31.653Z,72.16
2017-12-22T21:55:00.007Z,73.51
2017-12-22T21:57:28.400Z,73.52
2017-12-22T21:59:56.764Z,74.60
2017-12-22T22:02:25.159Z,75.26
2017-12-22T22:04:53.751Z,72.90
2017-12-22T22:07:22.219Z,76.89
2017-12-22T22:09:50.696Z,77.05
2017-12-22T22:12:19.232Z,76.22
2017-12-22T22:14:48.034Z,76.03
2017-12-22T22:17:16.653Z,74.36
2017-12-22T22:19:45.153Z,74.17
2017-12-22T22:22:13.623Z,75.00
2017-12-22T22:24:42.075Z,73.42
2017-12-22T22:27:10.809Z,74.56
2017-12-22T22:29:39.235Z,78.18
2017-12-22T22:32:07.603Z,74.72
2017-12-22T22:34:35.965Z,75.13
2017-12-22T22:37:04.315Z,73.32
2017-12-22T22:39:32.708Z,73.05
2017-12-22T22:42:01.069Z,72.58
2017-12-22T22:44:29.473Z,71.66
2017-12-22T22:46:57.838Z,77.10
2017-12-22T22:49:26.204Z,74.02
2017-12-22T22:51:55.505Z,73.46
2017-12-22T22:54:23.929Z,76.39
2017-12-22T22:56:52.398Z,75.56
2017-12-22T22:59:20.847Z,74.54
2017-12-22T23:01:50.235Z,74.06
2017-12-22T23:04:18.686Z,73.09
2017-12-22T23:06:47.136Z,73.78
2017-12-22T23:09:16.307Z,71.13
2017-12-22T23:11:45.950Z,71.81
2017-12-22T23:14:15.805Z,74.07
2017-12-22T23:16:46.418Z,75.79
2017-12-22T23:19:16.439Z,75.29
2017-12-22T23:21:45.572Z,75.89
2017-12-22T23:24:14.944Z,76.26
2017-12-22T23:26:44.734Z,76.64
2017-12-22T23:29:14.573Z,73.84
2017-12-22T23:31:55.055Z,77.10
2017-12-22T23:34:23.928Z,75.21
2017-12-22T23:36:52.605Z,78.68
2017-12-22T23:39:21.140Z,76.26
2017-12-22T23:41:50.051Z,73.34
2017-12-22T23:44:18.774Z,73.25
2017-12-22T23:46:47.468Z,73.29
2017-12-22T23:49:16.140Z,74.60
2017-12-22T23:51:44.807Z,76.56
2017-12-22T23:54:13.562Z,74.84
2017-12-22T23:56:42.131Z,73.51
2017-12-22T23:59:10.798Z,72.93
